createdAt,value
2022-09-14T00:02:06.707Z,17.44
2022-09-14T00:05:08.532Z,17.41
2022-09-14T00:08:10.717Z,17.38
2022-09-14T00:11:14.122Z,17.41
2022-09-14T00:14:16.130Z,17.44
2022-09-14T00:17:17.911Z,17.45
2022-09-14T00:20:19.302Z,17.41
2022-09-14T00:23:20.998Z,17.44
2022-09-14T00:26:23.432Z,17.43
2022-09-14T00:29:24.899Z,17.32
2022-09-14T00:32:26.283Z,17.31
2022-09-14T00:35:28.177Z,17.30
2022-09-14T00:38:29.583Z,17.34
2022-09-14T00:41:35.034Z,17.25
2022-09-14T00:44:36.595Z,17.17
2022-09-14T00:47:38.110Z,17.25
2022-09-14T00:50:39.562Z,17.22
2022-09-14T00:53:41.127Z,17.18
2022-09-14T00:56:42.652Z,17.26
2022-09-14T00:59:46.009Z,17.34
2022-09-14T01:02:47.373Z,17.34
2022-09-14T01:06:11.780Z,17.35
2022-09-14T01:09:40.284Z,17.38
2022-09-14T01:12:50.706Z,17.36
2022-09-14T01:16:03.046Z,17.39
2022-09-14T01:19:14.772Z,17.42
2022-09-14T01:22:53.381Z,17.37
2022-09-14T01:26:12.630Z,17.75
2022-09-14T01:29:34.834Z,17.96
2022-09-14T01:32:48.947Z,17.90
2022-09-14T01:35:56.930Z,17.84
2022-09-14T01:39:00.734Z,17.77
2022-09-14T01:42:03.692Z,17.68
2022-09-14T01:45:10.135Z,17.63
2022-09-14T01:48:15.810Z,17.65
2022-09-14T01:51:25.817Z,17.64
2022-09-14T01:54:42.613Z,17.58
2022-09-14T01:57:53.807Z,17.51
2022-09-14T02:00:59.049Z,17.51
2022-09-14T02:04:04.195Z,17.56
2022-09-14T02:07:06.305Z,17.52
2022-09-14T02:10:11.630Z,17.47
2022-09-14T02:13:13.761Z,17.41
2022-09-14T02:16:15.352Z,17.36
2022-09-14T02:19:20.534Z,17.38
2022-09-14T02:22:26.315Z,17.36
2022-09-14T02:25:27.732Z,17.40
2022-09-14T02:28:29.178Z,17.46
2022-09-14T02:31:49.057Z,17.44
2022-09-14T02:34:57.808Z,17.34
2022-09-14T02:38:20.330Z,17.30
2022-09-14T02:41:27.075Z,17.17
2022-09-14T02:44:58.802Z,17.25
2022-09-14T02:48:19.390Z,17.30
2022-09-14T02:51:27.770Z,17.25
2022-09-14T02:54:40.121Z,17.24
2022-09-14T02:58:03.805Z,17.31
2022-09-14T03:01:07.498Z,17.24
2022-09-14T03:04:09.225Z,17.29
2022-09-14T03:07:10.726Z,17.21
2022-09-14T03:10:12.192Z,17.26
2022-09-14T03:13:13.619Z,17.25
2022-09-14T03:16:17.086Z,17.29
2022-09-14T03:19:18.743Z,17.30
2022-09-14T03:22:20.118Z,17.30
2022-09-14T03:25:23.018Z,17.17
2022-09-14T03:28:24.626Z,17.08
2022-09-14T03:31:26.597Z,17.01
2022-09-14T03:34:28.039Z,17.05
2022-09-14T03:37:29.512Z,17.11
2022-09-14T03:40:31.273Z,17.10
2022-09-14T03:43:33.718Z,17.17
2022-09-14T03:46:35.170Z,17.13
2022-09-14T03:49:36.617Z,17.11
2022-09-14T03:52:38.845Z,17.10
2022-09-14T03:55:41.419Z,17.06
2022-09-14T03:58:44.367Z,17.06
2022-09-14T04:01:46.300Z,17.09
2022-09-14T04:04:48.222Z,17.08
2022-09-14T04:07:49.661Z,17.09
2022-09-14T04:10:51.263Z,17.10
2022-09-14T04:13:53.218Z,17.10
2022-09-14T04:16:54.587Z,17.11
2022-09-14T04:19:56.013Z,17.12
2022-09-14T04:22:57.570Z,17.02
2022-09-14T04:25:59.603Z,16.96
2022-09-14T04:29:01.030Z,16.98
2022-09-14T04:32:03.235Z,17.01
2022-09-14T04:35:04.870Z,17.04
2022-09-14T04:38:06.318Z,17.02
2022-09-14T04:41:13.615Z,17.03
2022-09-14T04:44:15.305Z,17.06
2022-09-14T04:47:16.681Z,17.07
2022-09-14T04:50:18.063Z,17.02
2022-09-14T04:53:19.498Z,17.06
2022-09-14T04:56:24.110Z,17.09
2022-09-14T04:59:25.939Z,17.09
2022-09-14T05:02:27.355Z,17.10
2022-09-14T05:05:28.753Z,17.15
2022-09-14T05:08:30.433Z,17.16
2022-09-14T05:11:34.211Z,17.12
2022-09-14T05:14:35.628Z,17.12
2022-09-14T05:17:37.008Z,17.12
2022-09-14T05:20:39.176Z,17.12
2022-09-14T05:23:41.043Z,17.17
2022-09-14T05:26:43.748Z,17.24
2022-09-14T05:29:45.105Z,17.32
2022-09-14T05:32:46.489Z,17.41
2022-09-14T05:35:48.783Z,17.46
2022-09-14T05:38:50.500Z,17.44
2022-09-14T05:41:52.021Z,17.49
2022-09-14T05:44:53.389Z,17.48
2022-09-14T05:47:54.822Z,17.47
2022-09-14T05:51:05.579Z,17.52
2022-09-14T05:54:11.340Z,17.52
2022-09-14T05:57:12.783Z,17.57
2022-09-14T06:00:15.193Z,17.60
2022-09-14T06:03:16.630Z,17.60
2022-09-14T06:06:19.553Z,17.67
2022-09-14T06:09:21.022Z,17.78
2022-09-14T06:12:23.298Z,17.86
2022-09-14T06:15:24.766Z,17.95
2022-09-14T06:18:26.209Z,18.05
2022-09-14T06:21:30.954Z,18.19
2022-09-14T06:24:33.200Z,18.32
2022-09-14T06:27:34.642Z,18.39
2022-09-14T06:30:36.082Z,18.43
2022-09-14T06:33:37.574Z,18.50
2022-09-14T06:36:39.044Z,18.56
2022-09-14T06:39:40.467Z,18.58
2022-09-14T06:42:41.899Z,18.64
2022-09-14T06:45:43.302Z,18.64
2022-09-14T06:49:03.569Z,18.68
2022-09-14T06:52:05.018Z,18.77
2022-09-14T06:55:06.829Z,18.86
2022-09-14T06:58:09.426Z,18.89
2022-09-14T07:01:14.785Z,18.92
2022-09-14T07:04:16.550Z,18.95
2022-09-14T07:07:18.000Z,18.98
2022-09-14T07:10:19.517Z,19.05
2022-09-14T07:13:20.940Z,19.13
2022-09-14T07:16:22.386Z,19.20
2022-09-14T07:19:23.763Z,19.24
2022-09-14T07:22:25.180Z,19.37
2022-09-14T07:25:26.626Z,19.46
2022-09-14T07:28:28.246Z,19.52
2022-09-14T07:31:35.482Z,19.58
2022-09-14T07:34:36.898Z,19.58
2022-09-14T07:37:38.272Z,19.60
2022-09-14T07:40:39.633Z,19.63
2022-09-14T07:43:41.383Z,19.72
2022-09-14T07:46:44.683Z,19.86
2022-09-14T07:49:46.091Z,19.93
2022-09-14T07:52:51.058Z,20.03
2022-09-14T07:55:52.736Z,20.15
2022-09-14T07:59:07.125Z,20.23
2022-09-14T08:02:18.503Z,20.28
2022-09-14T08:05:20.034Z,20.45
2022-09-14T08:08:21.699Z,20.57
2022-09-14T08:11:31.364Z,20.66
2022-09-14T08:14:32.878Z,20.76
2022-09-14T08:17:34.222Z,20.79
2022-09-14T08:20:35.626Z,20.86
2022-09-14T08:23:39.580Z,20.90
2022-09-14T08:26:41.056Z,20.87
2022-09-14T08:29:42.393Z,20.93
2022-09-14T08:32:45.552Z,21.11
2022-09-14T08:35:57.781Z,21.16
2022-09-14T08:39:00.575Z,21.23
2022-09-14T08:42:05.951Z,21.20
2022-09-14T08:45:09.886Z,21.09
2022-09-14T08:48:27.159Z,21.03
2022-09-14T08:51:29.524Z,21.05
2022-09-14T08:54:33.247Z,21.11
2022-09-14T08:57:40.495Z,21.17
2022-09-14T09:00:59.242Z,21.23
2022-09-14T09:04:00.713Z,21.37
2022-09-14T09:07:12.128Z,21.52
2022-09-14T09:10:13.824Z,21.66
2022-09-14T09:13:20.227Z,21.81
2022-09-14T09:16:24.711Z,21.90
2022-09-14T09:19:34.445Z,22.00
2022-09-14T09:22:41.526Z,22.06
2022-09-14T09:25:50.052Z,22.10
2022-09-14T09:28:58.596Z,22.14
2022-09-14T09:32:00.196Z,22.21
2022-09-14T09:35:24.598Z,22.31
2022-09-14T09:38:34.639Z,22.48
2022-09-14T09:41:51.259Z,22.60
2022-09-14T09:45:05.919Z,22.83
2022-09-14T09:48:10.916Z,22.81
2022-09-14T09:51:15.417Z,22.83
2022-09-14T09:54:16.758Z,22.76
2022-09-14T09:57:36.818Z,22.74
2022-09-14T10:00:38.280Z,22.88
2022-09-14T10:03:40.785Z,23.08
2022-09-14T10:06:45.344Z,23.21
2022-09-14T10:09:57.502Z,23.57
2022-09-14T10:12:58.970Z,23.70
2022-09-14T10:16:07.709Z,23.66
2022-09-14T10:19:14.944Z,23.74
2022-09-14T10:22:26.644Z,23.79
2022-09-14T10:25:28.720Z,23.73
2022-09-14T10:28:33.667Z,23.55
2022-09-14T10:31:37.251Z,23.46
2022-09-14T10:34:38.645Z,23.46
2022-09-14T10:37:50.534Z,23.65
2022-09-14T10:41:19.517Z,23.73
2022-09-14T10:44:52.508Z,23.74
2022-09-14T10:48:12.211Z,23.76
2022-09-14T10:51:29.410Z,23.96
2022-09-14T10:55:08.653Z,23.82
2022-09-14T10:58:33.809Z,23.98
2022-09-14T11:02:05.376Z,23.97
2022-09-14T11:05:12.900Z,24.07
2022-09-14T11:08:34.790Z,24.25
2022-09-14T11:12:08.988Z,24.24
2022-09-14T11:15:23.682Z,24.25
2022-09-14T11:18:45.443Z,24.25
2022-09-14T11:22:00.744Z,24.21
2022-09-14T11:25:16.586Z,24.20
2022-09-14T11:28:28.954Z,24.22
2022-09-14T11:31:38.763Z,24.32
2022-09-14T11:34:57.760Z,24.33
2022-09-14T11:38:02.944Z,24.34
2022-09-14T11:41:07.769Z,24.38
2022-09-14T11:44:24.414Z,24.39
2022-09-14T11:47:26.359Z,24.41
2022-09-14T11:50:31.519Z,24.35
2022-09-14T11:53:33.981Z,24.29
2022-09-14T11:56:35.673Z,24.13
2022-09-14T11:59:39.892Z,24.18
2022-09-14T12:02:42.879Z,24.19
2022-09-14T12:05:45.473Z,24.23
2022-09-14T12:08:47.581Z,24.20
2022-09-14T12:11:54.335Z,24.18
2022-09-14T12:14:59.650Z,24.14
2022-09-14T12:18:06.936Z,24.10
2022-09-14T12:21:26.474Z,24.16
2022-09-14T12:24:27.899Z,24.11
2022-09-14T12:27:36.924Z,24.05
2022-09-14T12:30:41.474Z,23.96
2022-09-14T12:33:43.874Z,23.87
2022-09-14T12:36:45.278Z,23.66
2022-09-14T12:40:20.614Z,23.63
2022-09-14T12:43:37.412Z,23.54
2022-09-14T12:46:39.880Z,23.31
2022-09-14T12:49:41.537Z,22.96
2022-09-14T12:53:12.719Z,22.69
2022-09-14T12:56:23.788Z,22.32
2022-09-14T13:00:10.426Z,22.07
2022-09-14T13:03:46.100Z,21.96
2022-09-14T13:06:47.742Z,21.87
2022-09-14T13:09:55.034Z,21.73
2022-09-14T13:12:56.532Z,21.55
2022-09-14T13:16:00.849Z,21.46
2022-09-14T13:19:07.151Z,21.25
2022-09-14T13:22:24.620Z,21.05
2022-09-14T13:25:35.339Z,20.98
2022-09-14T13:28:37.482Z,20.86
2022-09-14T13:31:39.697Z,20.81
2022-09-14T13:34:41.175Z,20.76
2022-09-14T13:37:47.576Z,20.58
2022-09-14T13:40:52.197Z,20.66
2022-09-14T13:43:56.008Z,20.56
2022-09-14T13:46:59.654Z,20.57
2022-09-14T13:50:01.199Z,20.64
2022-09-14T13:53:04.140Z,20.58
2022-09-14T13:56:17.380Z,20.48
2022-09-14T13:59:21.756Z,20.47
2022-09-14T14:02:23.489Z,20.33
2022-09-14T14:05:32.479Z,20.36
2022-09-14T14:08:38.479Z,20.41
2022-09-14T14:11:42.835Z,20.46
2022-09-14T14:14:52.996Z,20.43
2022-09-14T14:17:54.741Z,20.46
2022-09-14T14:21:05.238Z,20.54
2022-09-14T14:24:27.771Z,20.44
2022-09-14T14:27:35.882Z,20.36
2022-09-14T14:30:40.224Z,20.39
2022-09-14T14:33:50.910Z,20.34
2022-09-14T14:36:52.890Z,20.24
2022-09-14T14:39:54.330Z,20.21
2022-09-14T14:42:58.501Z,20.18
2022-09-14T14:46:01.297Z,20.16
2022-09-14T14:49:02.761Z,20.11
2022-09-14T14:52:04.268Z,20.00
2022-09-14T14:55:06.165Z,19.93
2022-09-14T14:58:12.807Z,19.71
2022-09-14T15:01:14.262Z,19.59
2022-09-14T15:04:16.257Z,19.48
2022-09-14T15:07:17.614Z,19.39
2022-09-14T15:10:20.740Z,19.25
2022-09-14T15:13:22.135Z,19.24
2022-09-14T15:16:23.647Z,19.27
2022-09-14T15:19:26.229Z,19.24
2022-09-14T15:22:27.696Z,19.16
2022-09-14T15:25:29.341Z,19.10
2022-09-14T15:28:30.961Z,19.13
2022-09-14T15:31:32.812Z,19.24
2022-09-14T15:34:34.251Z,19.27
2022-09-14T15:37:35.682Z,19.37
2022-09-14T15:40:37.407Z,19.45
2022-09-14T15:43:38.858Z,19.28
2022-09-14T15:46:40.327Z,19.31
2022-09-14T15:49:42.386Z,19.33
2022-09-14T15:52:43.813Z,19.15
2022-09-14T15:55:45.904Z,19.26
2022-09-14T15:58:48.227Z,19.30
2022-09-14T16:01:49.920Z,19.49
2022-09-14T16:04:51.533Z,19.65
2022-09-14T16:07:54.989Z,19.58
2022-09-14T16:10:58.084Z,19.73
2022-09-14T16:13:59.978Z,19.94
2022-09-14T16:17:01.635Z,19.99
2022-09-14T16:20:05.133Z,20.02
2022-09-14T16:23:06.570Z,19.69
2022-09-14T16:26:17.130Z,19.48
2022-09-14T16:29:20.545Z,19.23
2022-09-14T16:32:22.089Z,19.31
2022-09-14T16:35:23.673Z,19.38
2022-09-14T16:38:25.079Z,19.25
2022-09-14T16:41:27.419Z,19.22
2022-09-14T16:44:29.003Z,19.23
2022-09-14T16:47:32.164Z,19.24
2022-09-14T16:50:33.557Z,19.21
2022-09-14T16:53:37.487Z,19.17
2022-09-14T16:56:39.025Z,19.13
2022-09-14T16:59:40.429Z,19.06
2022-09-14T17:02:42.737Z,19.02
2022-09-14T17:05:44.141Z,19.02
2022-09-14T17:08:46.052Z,18.96
2022-09-14T17:11:48.509Z,18.89
2022-09-14T17:14:49.879Z,18.80
2022-09-14T17:17:52.348Z,18.73
2022-09-14T17:20:56.178Z,18.70
2022-09-14T17:23:58.064Z,18.67
2022-09-14T17:26:59.429Z,18.61
2022-09-14T17:30:00.861Z,18.58
2022-09-14T17:33:02.293Z,18.54
2022-09-14T17:36:05.423Z,18.48
2022-09-14T17:39:11.535Z,18.43
2022-09-14T17:42:13.542Z,18.43
2022-09-14T17:45:15.044Z,18.38
2022-09-14T17:48:16.442Z,18.32
2022-09-14T17:51:22.287Z,18.26
2022-09-14T17:54:23.723Z,18.20
2022-09-14T17:57:25.344Z,18.14
2022-09-14T18:00:26.799Z,18.10
2022-09-14T18:03:28.249Z,17.96
2022-09-14T18:06:35.514Z,17.96
2022-09-14T18:09:37.415Z,17.99
2022-09-14T18:12:39.679Z,17.97
2022-09-14T18:15:41.072Z,17.88
2022-09-14T18:18:42.749Z,17.88
2022-09-14T18:21:45.887Z,17.85
2022-09-14T18:24:49.285Z,17.87
2022-09-14T18:27:50.693Z,17.77
2022-09-14T18:31:09.881Z,17.74
2022-09-14T18:34:11.326Z,17.72
2022-09-14T18:37:13.374Z,17.71
2022-09-14T18:40:19.527Z,17.64
2022-09-14T18:43:22.526Z,17.59
2022-09-14T18:46:28.043Z,17.50
2022-09-14T18:49:29.876Z,17.48
2022-09-14T18:52:31.536Z,17.37
2022-09-14T18:55:33.730Z,17.35
2022-09-14T18:58:37.337Z,17.39
2022-09-14T19:01:39.009Z,17.41
2022-09-14T19:04:40.684Z,17.36
2022-09-14T19:07:42.071Z,17.36
2022-09-14T19:10:43.563Z,17.33
2022-09-14T19:13:46.381Z,17.37
2022-09-14T19:16:48.048Z,17.34
2022-09-14T19:19:49.558Z,17.37
2022-09-14T19:22:55.762Z,17.37
2022-09-14T19:26:22.959Z,17.41
2022-09-14T19:29:25.246Z,17.34
2022-09-14T19:32:26.991Z,17.40
2022-09-14T19:35:30.256Z,17.26
2022-09-14T19:38:31.699Z,17.21
2022-09-14T19:41:34.438Z,17.17
2022-09-14T19:44:35.917Z,17.23
2022-09-14T19:47:37.669Z,17.26
2022-09-14T19:50:39.054Z,17.29
2022-09-14T19:53:41.433Z,17.29
2022-09-14T19:56:43.531Z,17.25
2022-09-14T19:59:45.063Z,17.23
2022-09-14T20:02:46.543Z,17.24
2022-09-14T20:05:48.347Z,17.20
2022-09-14T20:08:55.594Z,17.25
2022-09-14T20:11:57.048Z,17.26
2022-09-14T20:14:58.468Z,17.21
2022-09-14T20:17:59.837Z,17.21
2022-09-14T20:21:01.416Z,17.24
2022-09-14T20:24:15.582Z,17.21
2022-09-14T20:27:17.872Z,17.20
2022-09-14T20:30:19.272Z,17.26
2022-09-14T20:33:20.658Z,17.19
2022-09-14T20:36:23.515Z,17.11
2022-09-14T20:39:25.002Z,17.07
2022-09-14T20:42:26.365Z,17.03
2022-09-14T20:45:28.041Z,17.01
2022-09-14T20:48:30.054Z,17.03
2022-09-14T20:51:32.159Z,17.02
2022-09-14T20:54:33.568Z,16.99
2022-09-14T20:57:34.957Z,16.95
2022-09-14T21:00:36.431Z,16.92
2022-09-14T21:03:40.838Z,16.96
2022-09-14T21:06:45.323Z,17.00
2022-09-14T21:09:46.701Z,16.92
2022-09-14T21:12:48.125Z,16.90
2022-09-14T21:15:49.784Z,16.91
2022-09-14T21:18:54.594Z,16.93
2022-09-14T21:21:56.467Z,16.98
2022-09-14T21:24:57.862Z,17.03
2022-09-14T21:27:59.868Z,17.08
2022-09-14T21:31:10.674Z,17.09
2022-09-14T21:34:12.584Z,17.04
2022-09-14T21:37:14.062Z,17.00
2022-09-14T21:40:18.215Z,17.03
2022-09-14T21:43:19.665Z,17.06
2022-09-14T21:46:21.425Z,17.06
2022-09-14T21:49:23.393Z,17.05
2022-09-14T21:52:24.824Z,17.08
2022-09-14T21:55:28.379Z,17.03
2022-09-14T21:58:29.818Z,17.03
2022-09-14T22:01:31.567Z,17.02
2022-09-14T22:04:33.041Z,16.96
2022-09-14T22:07:35.628Z,16.99
2022-09-14T22:10:37.041Z,17.00
2022-09-14T22:13:39.082Z,17.00
2022-09-14T22:16:41.708Z,17.01
2022-09-14T22:19:43.219Z,17.00
2022-09-14T22:22:44.593Z,17.01
2022-09-14T22:25:46.461Z,17.03
2022-09-14T22:28:50.415Z,17.05
2022-09-14T22:31:52.341Z,17.03
2022-09-14T22:34:53.982Z,17.04
2022-09-14T22:37:55.378Z,17.00
2022-09-14T22:40:58.945Z,17.01
2022-09-14T22:44:01.011Z,16.99
2022-09-14T22:47:02.443Z,16.98
2022-09-14T22:50:04.163Z,17.02
2022-09-14T22:53:05.534Z,17.02
2022-09-14T22:56:19.722Z,17.04
2022-09-14T22:59:21.107Z,17.00
2022-09-14T23:02:22.779Z,17.04
2022-09-14T23:05:24.286Z,17.03
2022-09-14T23:08:27.151Z,17.04
2022-09-14T23:11:29.539Z,17.09
2022-09-14T23:14:31.855Z,17.10
2022-09-14T23:17:33.224Z,17.16
2022-09-14T23:20:43.286Z,17.14
2022-09-14T23:23:44.753Z,17.13
2022-09-14T23:26:46.445Z,17.12
2022-09-14T23:29:48.331Z,17.15
2022-09-14T23:32:49.706Z,17.17
2022-09-14T23:35:51.097Z,17.18
2022-09-14T23:38:52.841Z,17.20
2022-09-14T23:41:54.587Z,17.18
2022-09-14T23:44:56.011Z,17.16
2022-09-14T23:47:57.388Z,17.09
2022-09-14T23:51:00.595Z,17.04
2022-09-14T23:54:02.092Z,17.02
2022-09-14T23:57:03.567Z,16.99
